sensor_id;sensor_type;location;lat;lon;timestamp;temperature;humidity
22666;DHT22;11499;49.486;11.104;2022-08-14T00:02:03;17.70;99.00
22666;DHT22;11499;49.486;11.104;2022-08-14T00:07:18;17.60;98.70
22666;DHT22;11499;49.486;11.104;2022-08-14T00:09:44;17.70;98.50
22666;DHT22;11499;49.486;11.104;2022-08-14T00:12:10;17.70;98.60
22666;DHT22;11499;49.486;11.104;2022-08-14T00:14:36;17.70;98.60
22666;DHT22;11499;49.486;11.104;2022-08-14T00:17:02;17.80;98.80
22666;DHT22;11499;49.486;11.104;2022-08-14T00:19:28;17.70;98.70
22666;DHT22;11499;49.486;11.104;2022-08-14T00:21:53;17.70;98.60
22666;DHT22;11499;49.486;11.104;2022-08-14T00:24:20;17.70;98.60
22666;DHT22;11499;49.486;11.104;2022-08-14T00:26:46;17.70;98.60
22666;DHT22;11499;49.486;11.104;2022-08-14T00:29:11;17.80;98.50
22666;DHT22;11499;49.486;11.104;2022-08-14T00:34:31;17.70;98.30
22666;DHT22;11499;49.486;11.104;2022-08-14T00:36:56;17.70;98.10
22666;DHT22;11499;49.486;11.104;2022-08-14T00:39:22;17.60;98.20
22666;DHT22;11499;49.486;11.104;2022-08-14T00:41:48;17.50;98.80
22666;DHT22;11499;49.486;11.104;2022-08-14T00:44:14;17.50;99.10
22666;DHT22;11499;49.486;11.104;2022-08-14T00:46:40;17.50;99.20
22666;DHT22;11499;49.486;11.104;2022-08-14T00:49:06;17.50;99.00
22666;DHT22;11499;49.486;11.104;2022-08-14T00:51:33;17.40;99.20
22666;DHT22;11499;49.486;11.104;2022-08-14T00:53:59;17.40;99.40
22666;DHT22;11499;49.486;11.104;2022-08-14T00:56:25;17.30;99.60
22666;DHT22;11499;49.486;11.104;2022-08-14T01:01:33;17.10;99.90
22666;DHT22;11499;49.486;11.104;2022-08-14T01:04:01;17.10;99.90
22666;DHT22;11499;49.486;11.104;2022-08-14T01:06:28;17.00;99.90
22666;DHT22;11499;49.486;11.104;2022-08-14T01:08:57;17.00;99.90
22666;DHT22;11499;49.486;11.104;2022-08-14T01:11:25;17.00;99.90
22666;DHT22;11499;49.486;11.104;2022-08-14T01:13:50;16.90;99.90
22666;DHT22;11499;49.486;11.104;2022-08-14T01:16:17;16.80;99.90
22666;DHT22;11499;49.486;11.104;2022-08-14T01:18:45;16.80;99.90
22666;DHT22;11499;49.486;11.104;2022-08-14T01:21:35;16.80;99.90
22666;DHT22;11499;49.486;11.104;2022-08-14T01:24:02;16.70;99.90
22666;DHT22;11499;49.486;11.104;2022-08-14T01:29:04;16.80;99.90
22666;DHT22;11499;49.486;11.104;2022-08-14T01:31:33;16.70;99.90
22666;DHT22;11499;49.486;11.104;2022-08-14T01:34:01;16.60;99.90
22666;DHT22;11499;49.486;11.104;2022-08-14T01:36:29;16.60;99.90
22666;DHT22;11499;49.486;11.104;2022-08-14T01:39:12;16.60;99.90
22666;DHT22;11499;49.486;11.104;2022-08-14T01:41:43;16.60;99.90
22666;DHT22;11499;49.486;11.104;2022-08-14T01:44:12;16.70;99.90
22666;DHT22;11499;49.486;11.104;2022-08-14T01:46:41;16.80;99.90
22666;DHT22;11499;49.486;11.104;2022-08-14T01:49:12;16.80;99.90
22666;DHT22;11499;49.486;11.104;2022-08-14T01:51:41;16.90;99.90
22666;DHT22;11499;49.486;11.104;2022-08-14T01:56:50;16.90;99.90
22666;DHT22;11499;49.486;11.104;2022-08-14T02:01:42;17.00;99.90
22666;DHT22;11499;49.486;11.104;2022-08-14T02:04:09;17.00;99.90
22666;DHT22;11499;49.486;11.104;2022-08-14T02:06:36;17.10;99.90
22666;DHT22;11499;49.486;11.104;2022-08-14T02:09:04;17.10;99.90
22666;DHT22;11499;49.486;11.104;2022-08-14T02:11:30;17.00;99.90
22666;DHT22;11499;49.486;11.104;2022-08-14T02:14:02;17.00;99.90
22666;DHT22;11499;49.486;11.104;2022-08-14T02:16:32;17.00;99.90
22666;DHT22;11499;49.486;11.104;2022-08-14T02:19:02;17.00;99.90
22666;DHT22;11499;49.486;11.104;2022-08-14T02:24:18;16.90;99.90
22666;DHT22;11499;49.486;11.104;2022-08-14T02:26:48;16.90;99.90
22666;DHT22;11499;49.486;11.104;2022-08-14T02:29:17;16.90;99.90
22666;DHT22;11499;49.486;11.104;2022-08-14T02:31:45;16.90;99.90
22666;DHT22;11499;49.486;11.104;2022-08-14T02:36:39;17.10;99.90
22666;DHT22;11499;49.486;11.104;2022-08-14T02:39:07;17.10;99.90
22666;DHT22;11499;49.486;11.104;2022-08-14T02:41:33;17.10;99.90
22666;DHT22;11499;49.486;11.104;2022-08-14T02:44:01;17.00;99.90
22666;DHT22;11499;49.486;11.104;2022-08-14T02:46:26;16.90;99.90
22666;DHT22;11499;49.486;11.104;2022-08-14T02:51:30;16.80;99.90
22666;DHT22;11499;49.486;11.104;2022-08-14T02:53:56;16.80;99.90
22666;DHT22;11499;49.486;11.104;2022-08-14T02:56:23;16.80;99.90
22666;DHT22;11499;49.486;11.104;2022-08-14T02:58:52;16.80;99.90
22666;DHT22;11499;49.486;11.104;2022-08-14T03:01:20;16.70;99.90
22666;DHT22;11499;49.486;11.104;2022-08-14T03:03:48;16.70;99.90
22666;DHT22;11499;49.486;11.104;2022-08-14T03:06:15;16.60;99.90
22666;DHT22;11499;49.486;11.104;2022-08-14T03:08:41;16.60;99.90
22666;DHT22;11499;49.486;11.104;2022-08-14T03:11:09;16.50;99.90
22666;DHT22;11499;49.486;11.104;2022-08-14T03:13:37;16.50;99.90
22666;DHT22;11499;49.486;11.104;2022-08-14T03:18:53;16.50;99.90
22666;DHT22;11499;49.486;11.104;2022-08-14T03:21:21;16.40;99.90
22666;DHT22;11499;49.486;11.104;2022-08-14T03:23:51;16.40;99.90
22666;DHT22;11499;49.486;11.104;2022-08-14T03:26:22;16.30;99.90
22666;DHT22;11499;49.486;11.104;2022-08-14T03:28:50;16.30;99.90
22666;DHT22;11499;49.486;11.104;2022-08-14T03:31:17;16.20;99.90
22666;DHT22;11499;49.486;11.104;2022-08-14T03:33:49;16.30;99.90
22666;DHT22;11499;49.486;11.104;2022-08-14T03:36:16;16.20;99.90
22666;DHT22;11499;49.486;11.104;2022-08-14T03:38:45;16.20;99.90
22666;DHT22;11499;49.486;11.104;2022-08-14T03:41:13;16.10;99.90
22666;DHT22;11499;49.486;11.104;2022-08-14T03:46:20;16.10;99.90
22666;DHT22;11499;49.486;11.104;2022-08-14T03:48:46;16.00;99.90
22666;DHT22;11499;49.486;11.104;2022-08-14T03:51:13;16.10;99.90
22666;DHT22;11499;49.486;11.104;2022-08-14T03:53:40;16.10;99.90
22666;DHT22;11499;49.486;11.104;2022-08-14T03:56:08;16.20;99.90
22666;DHT22;11499;49.486;11.104;2022-08-14T03:58:38;16.40;99.90
22666;DHT22;11499;49.486;11.104;2022-08-14T04:01:04;16.50;99.90
22666;DHT22;11499;49.486;11.104;2022-08-14T04:03:30;16.60;99.90
22666;DHT22;11499;49.486;11.104;2022-08-14T04:05:56;16.70;99.90
22666;DHT22;11499;49.486;11.104;2022-08-14T04:08:21;16.80;99.90
22666;DHT22;11499;49.486;11.104;2022-08-14T04:12:19;16.90;99.90
22666;DHT22;11499;49.486;11.104;2022-08-14T04:14:46;16.90;99.90
22666;DHT22;11499;49.486;11.104;2022-08-14T04:17:12;17.00;99.90
22666;DHT22;11499;49.486;11.104;2022-08-14T04:19:38;17.10;99.90
22666;DHT22;11499;49.486;11.104;2022-08-14T04:22:04;17.10;99.90
22666;DHT22;11499;49.486;11.104;2022-08-14T04:24:32;17.20;99.90
22666;DHT22;11499;49.486;11.104;2022-08-14T04:26:57;17.40;99.90
22666;DHT22;11499;49.486;11.104;2022-08-14T04:29:23;17.60;99.90
22666;DHT22;11499;49.486;11.104;2022-08-14T04:31:49;17.80;99.90
22666;DHT22;11499;49.486;11.104;2022-08-14T04:34:15;18.00;99.90
22666;DHT22;11499;49.486;11.104;2022-08-14T04:39:32;18.10;99.90
22666;DHT22;11499;49.486;11.104;2022-08-14T04:42:16;18.60;99.90
22666;DHT22;11499;49.486;11.104;2022-08-14T04:45:00;18.90;99.90
22666;DHT22;11499;49.486;11.104;2022-08-14T04:47:26;19.10;99.90
22666;DHT22;11499;49.486;11.104;2022-08-14T04:50:10;19.30;99.90
22666;DHT22;11499;49.486;11.104;2022-08-14T04:52:35;19.40;99.90
22666;DHT22;11499;49.486;11.104;2022-08-14T04:55:01;19.60;99.90
22666;DHT22;11499;49.486;11.104;2022-08-14T04:57:29;19.70;99.90
22666;DHT22;11499;49.486;11.104;2022-08-14T04:59:55;19.90;99.90
22666;DHT22;11499;49.486;11.104;2022-08-14T05:02:21;20.00;99.90
22666;DHT22;11499;49.486;11.104;2022-08-14T05:07:23;20.10;99.90
22666;DHT22;11499;49.486;11.104;2022-08-14T05:09:48;20.50;99.90
22666;DHT22;11499;49.486;11.104;2022-08-14T05:12:14;20.70;99.90
22666;DHT22;11499;49.486;11.104;2022-08-14T05:14:39;20.80;99.90
22666;DHT22;11499;49.486;11.104;2022-08-14T05:17:05;20.80;99.90
22666;DHT22;11499;49.486;11.104;2022-08-14T05:19:31;20.80;99.90
22666;DHT22;11499;49.486;11.104;2022-08-14T05:21:56;20.80;99.90
22666;DHT22;11499;49.486;11.104;2022-08-14T05:24:24;20.90;99.90
22666;DHT22;11499;49.486;11.104;2022-08-14T05:26:49;21.20;99.90
22666;DHT22;11499;49.486;11.104;2022-08-14T05:29:15;21.20;99.90
22666;DHT22;11499;49.486;11.104;2022-08-14T05:34:14;21.40;99.90
22666;DHT22;11499;49.486;11.104;2022-08-14T05:36:40;20.90;99.90
22666;DHT22;11499;49.486;11.104;2022-08-14T05:39:06;21.50;99.90
22666;DHT22;11499;49.486;11.104;2022-08-14T05:41:32;21.70;99.90
22666;DHT22;11499;49.486;11.104;2022-08-14T05:43:59;21.60;99.90
22666;DHT22;11499;49.486;11.104;2022-08-14T05:46:24;21.40;99.90
22666;DHT22;11499;49.486;11.104;2022-08-14T05:48:55;21.30;99.90
22666;DHT22;11499;49.486;11.104;2022-08-14T05:51:22;21.30;99.90
22666;DHT22;11499;49.486;11.104;2022-08-14T05:53:48;21.30;99.90
22666;DHT22;11499;49.486;11.104;2022-08-14T05:56:14;21.20;99.90
22666;DHT22;11499;49.486;11.104;2022-08-14T06:02:08;20.90;99.90
22666;DHT22;11499;49.486;11.104;2022-08-14T06:04:33;20.80;99.90
22666;DHT22;11499;49.486;11.104;2022-08-14T06:06:59;20.70;99.90
22666;DHT22;11499;49.486;11.104;2022-08-14T06:09:24;20.80;99.90
22666;DHT22;11499;49.486;11.104;2022-08-14T06:11:50;20.90;99.90
22666;DHT22;11499;49.486;11.104;2022-08-14T06:14:16;20.70;99.90
22666;DHT22;11499;49.486;11.104;2022-08-14T06:16:41;20.80;99.90
22666;DHT22;11499;49.486;11.104;2022-08-14T06:19:09;21.00;99.90
22666;DHT22;11499;49.486;11.104;2022-08-14T06:21:35;21.00;99.90
22666;DHT22;11499;49.486;11.104;2022-08-14T06:24:00;21.00;99.90
22666;DHT22;11499;49.486;11.104;2022-08-14T06:29:10;20.90;99.90
22666;DHT22;11499;49.486;11.104;2022-08-14T06:31:36;20.80;99.90
22666;DHT22;11499;49.486;11.104;2022-08-14T06:34:01;20.80;99.90
22666;DHT22;11499;49.486;11.104;2022-08-14T06:36:27;21.00;99.90
22666;DHT22;11499;49.486;11.104;2022-08-14T06:38:53;20.90;99.90
22666;DHT22;11499;49.486;11.104;2022-08-14T06:41:19;21.00;99.90
22666;DHT22;11499;49.486;11.104;2022-08-14T06:43:44;21.20;99.90
22666;DHT22;11499;49.486;11.104;2022-08-14T06:46:10;21.20;99.90
22666;DHT22;11499;49.486;11.104;2022-08-14T06:48:36;21.50;99.90
22666;DHT22;11499;49.486;11.104;2022-08-14T06:51:02;21.40;99.90
22666;DHT22;11499;49.486;11.104;2022-08-14T06:56:22;21.40;99.90
22666;DHT22;11499;49.486;11.104;2022-08-14T06:58:51;21.70;99.90
22666;DHT22;11499;49.486;11.104;2022-08-14T07:01:17;22.10;99.90
22666;DHT22;11499;49.486;11.104;2022-08-14T07:04:01;22.30;99.90
22666;DHT22;11499;49.486;11.104;2022-08-14T07:06:45;22.20;99.60
22666;DHT22;11499;49.486;11.104;2022-08-14T07:09:11;22.30;99.70
22666;DHT22;11499;49.486;11.104;2022-08-14T07:11:37;22.50;99.30
22666;DHT22;11499;49.486;11.104;2022-08-14T07:14:03;22.80;98.60
22666;DHT22;11499;49.486;11.104;2022-08-14T07:16:29;22.90;98.10
22666;DHT22;11499;49.486;11.104;2022-08-14T07:18:54;22.90;97.70
22666;DHT22;11499;49.486;11.104;2022-08-14T07:21:20;22.90;97.40
22666;DHT22;11499;49.486;11.104;2022-08-14T07:23:46;22.80;97.30
22666;DHT22;11499;49.486;11.104;2022-08-14T07:28:45;22.80;97.30
22666;DHT22;11499;49.486;11.104;2022-08-14T07:31:11;23.60;96.00
22666;DHT22;11499;49.486;11.104;2022-08-14T07:33:42;23.70;95.10
22666;DHT22;11499;49.486;11.104;2022-08-14T07:36:11;23.90;94.70
22666;DHT22;11499;49.486;11.104;2022-08-14T07:38:37;24.10;94.20
22666;DHT22;11499;49.486;11.104;2022-08-14T07:41:05;24.30;93.20
22666;DHT22;11499;49.486;11.104;2022-08-14T07:43:31;24.40;92.70
22666;DHT22;11499;49.486;11.104;2022-08-14T07:45:57;24.40;92.50
22666;DHT22;11499;49.486;11.104;2022-08-14T07:48:22;24.50;92.00
22666;DHT22;11499;49.486;11.104;2022-08-14T07:50:48;24.50;91.60
22666;DHT22;11499;49.486;11.104;2022-08-14T07:55:17;24.20;91.80
22666;DHT22;11499;49.486;11.104;2022-08-14T07:57:44;24.30;91.70
22666;DHT22;11499;49.486;11.104;2022-08-14T08:02:40;24.20;91.00
22666;DHT22;11499;49.486;11.104;2022-08-14T08:05:08;24.40;90.80
22666;DHT22;11499;49.486;11.104;2022-08-14T08:07:34;24.40;90.60
22666;DHT22;11499;49.486;11.104;2022-08-14T08:10:07;24.30;90.50
22666;DHT22;11499;49.486;11.104;2022-08-14T08:12:55;24.40;90.20
22666;DHT22;11499;49.486;11.104;2022-08-14T08:15:22;24.70;88.00
22666;DHT22;11499;49.486;11.104;2022-08-14T08:20:57;24.60;88.20
22666;DHT22;11499;49.486;11.104;2022-08-14T08:23:23;24.60;87.70
22666;DHT22;11499;49.486;11.104;2022-08-14T08:25:51;24.80;85.80
22666;DHT22;11499;49.486;11.104;2022-08-14T08:28:22;24.90;85.20
22666;DHT22;11499;49.486;11.104;2022-08-14T08:31:03;25.20;82.90
22666;DHT22;11499;49.486;11.104;2022-08-14T08:33:32;25.30;79.40
22666;DHT22;11499;49.486;11.104;2022-08-14T08:36:03;25.20;77.80
22666;DHT22;11499;49.486;11.104;2022-08-14T08:38:29;25.60;75.60
22666;DHT22;11499;49.486;11.104;2022-08-14T08:40:56;25.90;73.30
22666;DHT22;11499;49.486;11.104;2022-08-14T08:43:24;26.20;73.20
22666;DHT22;11499;49.486;11.104;2022-08-14T08:48:21;25.70;75.10
22666;DHT22;11499;49.486;11.104;2022-08-14T08:50:47;26.00;72.10
22666;DHT22;11499;49.486;11.104;2022-08-14T08:53:13;25.90;71.70
22666;DHT22;11499;49.486;11.104;2022-08-14T08:55:43;26.10;69.10
22666;DHT22;11499;49.486;11.104;2022-08-14T08:58:11;26.30;69.80
22666;DHT22;11499;49.486;11.104;2022-08-14T09:00:39;26.20;69.30
22666;DHT22;11499;49.486;11.104;2022-08-14T09:03:10;25.90;70.00
22666;DHT22;11499;49.486;11.104;2022-08-14T09:05:47;26.40;67.90
22666;DHT22;11499;49.486;11.104;2022-08-14T09:08:24;26.30;67.70
22666;DHT22;11499;49.486;11.104;2022-08-14T09:13:30;26.40;67.70
22666;DHT22;11499;49.486;11.104;2022-08-14T09:15:55;26.50;69.20
22666;DHT22;11499;49.486;11.104;2022-08-14T09:18:22;26.40;70.80
22666;DHT22;11499;49.486;11.104;2022-08-14T09:20:50;26.70;68.40
22666;DHT22;11499;49.486;11.104;2022-08-14T09:23:16;27.20;66.30
22666;DHT22;11499;49.486;11.104;2022-08-14T09:25:44;27.70;65.50
22666;DHT22;11499;49.486;11.104;2022-08-14T09:28:11;27.40;65.20
22666;DHT22;11499;49.486;11.104;2022-08-14T09:30:40;27.20;64.60
22666;DHT22;11499;49.486;11.104;2022-08-14T09:36:22;27.40;66.60
22666;DHT22;11499;49.486;11.104;2022-08-14T09:40:44;26.60;66.90
22666;DHT22;11499;49.486;11.104;2022-08-14T09:43:30;26.40;66.80
22666;DHT22;11499;49.486;11.104;2022-08-14T09:45:57;26.30;66.90
22666;DHT22;11499;49.486;11.104;2022-08-14T09:48:25;26.40;67.40
22666;DHT22;11499;49.486;11.104;2022-08-14T09:50:55;26.80;66.40
22666;DHT22;11499;49.486;11.104;2022-08-14T09:53:36;27.50;63.50
22666;DHT22;11499;49.486;11.104;2022-08-14T09:56:03;28.10;60.50
22666;DHT22;11499;49.486;11.104;2022-08-14T09:58:41;28.00;59.70
22666;DHT22;11499;49.486;11.104;2022-08-14T10:06:45;28.50;59.90
22666;DHT22;11499;49.486;11.104;2022-08-14T10:09:11;27.70;59.80
22666;DHT22;11499;49.486;11.104;2022-08-14T10:11:39;27.40;60.60
22666;DHT22;11499;49.486;11.104;2022-08-14T10:14:18;27.40;60.60
22666;DHT22;11499;49.486;11.104;2022-08-14T10:16:48;27.70;59.80
22666;DHT22;11499;49.486;11.104;2022-08-14T10:19:16;28.40;59.10
22666;DHT22;11499;49.486;11.104;2022-08-14T10:21:58;28.90;57.10
22666;DHT22;11499;49.486;11.104;2022-08-14T10:24:35;29.60;56.20
22666;DHT22;11499;49.486;11.104;2022-08-14T10:27:16;30.30;54.50
22666;DHT22;11499;49.486;11.104;2022-08-14T10:29:46;30.70;53.50
22666;DHT22;11499;49.486;11.104;2022-08-14T10:34:06;30.70;52.90
22666;DHT22;11499;49.486;11.104;2022-08-14T10:36:37;30.40;52.40
22666;DHT22;11499;49.486;11.104;2022-08-14T10:39:16;29.60;53.20
22666;DHT22;11499;49.486;11.104;2022-08-14T10:41:43;29.90;52.90
22666;DHT22;11499;49.486;11.104;2022-08-14T10:44:12;30.20;52.00
22666;DHT22;11499;49.486;11.104;2022-08-14T10:46:50;30.60;51.10
22666;DHT22;11499;49.486;11.104;2022-08-14T10:49:22;30.60;49.60
22666;DHT22;11499;49.486;11.104;2022-08-14T10:52:05;30.00;48.90
22666;DHT22;11499;49.486;11.104;2022-08-14T10:54:40;30.00;49.10
22666;DHT22;11499;49.486;11.104;2022-08-14T10:57:14;30.00;49.20
22666;DHT22;11499;49.486;11.104;2022-08-14T10:59:54;30.00;49.20
22666;DHT22;11499;49.486;11.104;2022-08-14T11:05:14;30.10;48.50
22666;DHT22;11499;49.486;11.104;2022-08-14T11:10:21;30.90;47.40
22666;DHT22;11499;49.486;11.104;2022-08-14T11:12:49;31.20;47.20
22666;DHT22;11499;49.486;11.104;2022-08-14T11:15:21;31.10;46.80
22666;DHT22;11499;49.486;11.104;2022-08-14T11:17:48;31.00;46.80
22666;DHT22;11499;49.486;11.104;2022-08-14T11:20:17;31.00;46.80
22666;DHT22;11499;49.486;11.104;2022-08-14T11:22:44;31.40;46.50
22666;DHT22;11499;49.486;11.104;2022-08-14T11:25:14;31.80;45.60
22666;DHT22;11499;49.486;11.104;2022-08-14T11:27:45;31.70;45.90
22666;DHT22;11499;49.486;11.104;2022-08-14T11:33:30;31.20;47.10
22666;DHT22;11499;49.486;11.104;2022-08-14T11:36:01;32.00;45.30
22666;DHT22;11499;49.486;11.104;2022-08-14T11:38:40;32.50;44.80
22666;DHT22;11499;49.486;11.104;2022-08-14T11:41:07;32.30;44.20
22666;DHT22;11499;49.486;11.104;2022-08-14T11:43:40;32.50;43.90
22666;DHT22;11499;49.486;11.104;2022-08-14T11:46:07;32.80;43.40
22666;DHT22;11499;49.486;11.104;2022-08-14T11:48:52;33.60;42.80
22666;DHT22;11499;49.486;11.104;2022-08-14T11:51:23;33.80;41.50
22666;DHT22;11499;49.486;11.104;2022-08-14T11:53:56;33.40;41.80
22666;DHT22;11499;49.486;11.104;2022-08-14T11:58:58;32.90;42.40
22666;DHT22;11499;49.486;11.104;2022-08-14T12:01:27;32.60;42.60
22666;DHT22;11499;49.486;11.104;2022-08-14T12:03:54;32.00;43.00
22666;DHT22;11499;49.486;11.104;2022-08-14T12:06:24;31.80;43.20
22666;DHT22;11499;49.486;11.104;2022-08-14T12:08:50;32.00;43.00
22666;DHT22;11499;49.486;11.104;2022-08-14T12:11:18;31.60;43.40
22666;DHT22;11499;49.486;11.104;2022-08-14T12:13:44;31.80;43.40
22666;DHT22;11499;49.486;11.104;2022-08-14T12:16:12;32.20;42.80
22666;DHT22;11499;49.486;11.104;2022-08-14T12:18:40;31.80;43.30
22666;DHT22;11499;49.486;11.104;2022-08-14T12:21:16;32.00;42.90
22666;DHT22;11499;49.486;11.104;2022-08-14T12:26:04;32.50;41.70
22666;DHT22;11499;49.486;11.104;2022-08-14T12:28:30;32.80;41.10
22666;DHT22;11499;49.486;11.104;2022-08-14T12:30:55;32.80;40.30
22666;DHT22;11499;49.486;11.104;2022-08-14T12:33:30;32.50;41.30
22666;DHT22;11499;49.486;11.104;2022-08-14T12:36:02;31.90;40.90
22666;DHT22;11499;49.486;11.104;2022-08-14T12:38:38;31.50;41.90
22666;DHT22;11499;49.486;11.104;2022-08-14T12:41:11;31.10;42.40
22666;DHT22;11499;49.486;11.104;2022-08-14T12:43:49;30.40;42.70
22666;DHT22;11499;49.486;11.104;2022-08-14T12:46:28;30.70;43.00
22666;DHT22;11499;49.486;11.104;2022-08-14T12:48:59;30.60;43.40
22666;DHT22;11499;49.486;11.104;2022-08-14T12:53:59;31.30;42.80
22666;DHT22;11499;49.486;11.104;2022-08-14T12:56:24;32.20;40.90
22666;DHT22;11499;49.486;11.104;2022-08-14T12:58:55;32.00;40.30
22666;DHT22;11499;49.486;11.104;2022-08-14T13:01:26;31.20;41.10
22666;DHT22;11499;49.486;11.104;2022-08-14T13:06:33;31.80;40.50
22666;DHT22;11499;49.486;11.104;2022-08-14T13:08:59;32.10;40.50
22666;DHT22;11499;49.486;11.104;2022-08-14T13:11:28;32.50;40.00
22666;DHT22;11499;49.486;11.104;2022-08-14T13:13:57;32.80;39.70
22666;DHT22;11499;49.486;11.104;2022-08-14T13:16:24;32.70;39.70
22666;DHT22;11499;49.486;11.104;2022-08-14T13:21:27;32.60;39.20
22666;DHT22;11499;49.486;11.104;2022-08-14T13:23:55;32.10;39.50
22666;DHT22;11499;49.486;11.104;2022-08-14T13:26:24;32.10;39.30
22666;DHT22;11499;49.486;11.104;2022-08-14T13:28:51;31.90;39.70
22666;DHT22;11499;49.486;11.104;2022-08-14T13:31:20;31.80;39.70
22666;DHT22;11499;49.486;11.104;2022-08-14T13:33:46;31.70;40.50
22666;DHT22;11499;49.486;11.104;2022-08-14T13:36:13;31.50;39.80
22666;DHT22;11499;49.486;11.104;2022-08-14T13:38:39;31.50;40.40
22666;DHT22;11499;49.486;11.104;2022-08-14T13:41:09;32.00;40.00
22666;DHT22;11499;49.486;11.104;2022-08-14T13:43:35;32.40;39.50
22666;DHT22;11499;49.486;11.104;2022-08-14T13:46:02;32.60;39.00
22666;DHT22;11499;49.486;11.104;2022-08-14T13:51:11;32.30;39.70
22666;DHT22;11499;49.486;11.104;2022-08-14T13:53:44;30.70;42.10
22666;DHT22;11499;49.486;11.104;2022-08-14T13:56:10;30.50;42.60
22666;DHT22;11499;49.486;11.104;2022-08-14T13:58:37;30.70;42.30
22666;DHT22;11499;49.486;11.104;2022-08-14T14:01:03;31.00;41.80
22666;DHT22;11499;49.486;11.104;2022-08-14T14:03:33;31.30;40.60
22666;DHT22;11499;49.486;11.104;2022-08-14T14:06:01;31.70;40.60
22666;DHT22;11499;49.486;11.104;2022-08-14T14:08:27;31.50;40.80
22666;DHT22;11499;49.486;11.104;2022-08-14T14:10:54;31.60;40.40
22666;DHT22;11499;49.486;11.104;2022-08-14T14:16:09;31.90;40.30
22666;DHT22;11499;49.486;11.104;2022-08-14T14:18:36;31.10;41.20
22666;DHT22;11499;49.486;11.104;2022-08-14T14:21:02;30.80;41.30
22666;DHT22;11499;49.486;11.104;2022-08-14T14:23:29;31.00;41.00
22666;DHT22;11499;49.486;11.104;2022-08-14T14:25:56;30.80;41.40
22666;DHT22;11499;49.486;11.104;2022-08-14T14:28:27;30.70;41.70
22666;DHT22;11499;49.486;11.104;2022-08-14T14:30:53;31.10;41.10
22666;DHT22;11499;49.486;11.104;2022-08-14T14:33:19;31.60;40.80
22666;DHT22;11499;49.486;11.104;2022-08-14T14:35:46;31.40;40.80
22666;DHT22;11499;49.486;11.104;2022-08-14T14:38:14;30.80;41.90
22666;DHT22;11499;49.486;11.104;2022-08-14T14:43:18;30.70;42.10
22666;DHT22;11499;49.486;11.104;2022-08-14T14:45:45;32.00;39.60
22666;DHT22;11499;49.486;11.104;2022-08-14T14:48:13;32.30;39.00
22666;DHT22;11499;49.486;11.104;2022-08-14T14:50:38;32.60;38.20
22666;DHT22;11499;49.486;11.104;2022-08-14T14:53:05;32.60;38.20
22666;DHT22;11499;49.486;11.104;2022-08-14T14:55:31;32.70;38.10
22666;DHT22;11499;49.486;11.104;2022-08-14T14:57:58;32.70;37.80
22666;DHT22;11499;49.486;11.104;2022-08-14T15:00:24;32.50;38.00
22666;DHT22;11499;49.486;11.104;2022-08-14T15:02:51;32.50;38.30
22666;DHT22;11499;49.486;11.104;2022-08-14T15:05:18;32.20;38.60
22666;DHT22;11499;49.486;11.104;2022-08-14T15:09:45;31.90;38.80
22666;DHT22;11499;49.486;11.104;2022-08-14T15:12:10;31.50;39.30
22666;DHT22;11499;49.486;11.104;2022-08-14T15:14:36;31.20;39.60
22666;DHT22;11499;49.486;11.104;2022-08-14T15:17:01;31.00;40.00
22666;DHT22;11499;49.486;11.104;2022-08-14T15:19:28;31.50;39.50
22666;DHT22;11499;49.486;11.104;2022-08-14T15:21:53;31.90;39.20
22666;DHT22;11499;49.486;11.104;2022-08-14T15:24:19;32.00;39.10
22666;DHT22;11499;49.486;11.104;2022-08-14T15:26:45;32.10;38.70
22666;DHT22;11499;49.486;11.104;2022-08-14T15:29:10;32.30;38.30
22666;DHT22;11499;49.486;11.104;2022-08-14T15:31:39;32.30;38.10
22666;DHT22;11499;49.486;11.104;2022-08-14T15:37:05;32.60;37.60
22666;DHT22;11499;49.486;11.104;2022-08-14T15:39:32;32.50;37.50
22666;DHT22;11499;49.486;11.104;2022-08-14T15:41:58;31.80;39.10
22666;DHT22;11499;49.486;11.104;2022-08-14T15:44:26;31.80;39.60
22666;DHT22;11499;49.486;11.104;2022-08-14T15:46:53;31.70;39.80
22666;DHT22;11499;49.486;11.104;2022-08-14T15:49:18;31.30;40.50
22666;DHT22;11499;49.486;11.104;2022-08-14T15:51:45;31.50;40.20
22666;DHT22;11499;49.486;11.104;2022-08-14T15:54:10;31.20;40.60
22666;DHT22;11499;49.486;11.104;2022-08-14T15:56:36;31.70;39.90
22666;DHT22;11499;49.486;11.104;2022-08-14T15:59:02;32.00;39.40
22666;DHT22;11499;49.486;11.104;2022-08-14T16:04:07;31.70;39.70
22666;DHT22;11499;49.486;11.104;2022-08-14T16:06:33;31.00;40.60
22666;DHT22;11499;49.486;11.104;2022-08-14T16:08:58;30.80;41.00
22666;DHT22;11499;49.486;11.104;2022-08-14T16:11:24;30.60;40.90
22666;DHT22;11499;49.486;11.104;2022-08-14T16:13:50;30.60;41.10
22666;DHT22;11499;49.486;11.104;2022-08-14T16:18:44;30.70;40.70
22666;DHT22;11499;49.486;11.104;2022-08-14T16:21:12;30.60;41.20
22666;DHT22;11499;49.486;11.104;2022-08-14T16:23:40;30.20;41.60
22666;DHT22;11499;49.486;11.104;2022-08-14T16:26:11;30.50;41.50
22666;DHT22;11499;49.486;11.104;2022-08-14T16:31:19;31.20;40.80
22666;DHT22;11499;49.486;11.104;2022-08-14T16:33:48;31.40;40.30
22666;DHT22;11499;49.486;11.104;2022-08-14T16:36:16;31.00;41.30
22666;DHT22;11499;49.486;11.104;2022-08-14T16:38:54;30.40;41.20
22666;DHT22;11499;49.486;11.104;2022-08-14T16:41:21;30.50;41.30
22666;DHT22;11499;49.486;11.104;2022-08-14T16:44:04;30.50;41.60
22666;DHT22;11499;49.486;11.104;2022-08-14T16:46:33;30.70;41.20
22666;DHT22;11499;49.486;11.104;2022-08-14T16:49:03;30.80;41.20
22666;DHT22;11499;49.486;11.104;2022-08-14T16:51:30;30.90;40.90
22666;DHT22;11499;49.486;11.104;2022-08-14T16:53:57;31.30;39.70
22666;DHT22;11499;49.486;11.104;2022-08-14T16:58:32;31.30;39.50
22666;DHT22;11499;49.486;11.104;2022-08-14T17:01:15;31.70;39.30
22666;DHT22;11499;49.486;11.104;2022-08-14T17:06:47;31.90;38.90
22666;DHT22;11499;49.486;11.104;2022-08-14T17:09:36;32.50;38.20
22666;DHT22;11499;49.486;11.104;2022-08-14T17:12:20;32.00;38.90
22666;DHT22;11499;49.486;11.104;2022-08-14T17:14:48;31.80;39.00
22666;DHT22;11499;49.486;11.104;2022-08-14T17:17:19;31.80;39.00
22666;DHT22;11499;49.486;11.104;2022-08-14T17:19:45;32.20;38.50
22666;DHT22;11499;49.486;11.104;2022-08-14T17:25:23;33.20;37.20
22666;DHT22;11499;49.486;11.104;2022-08-14T17:30:56;33.30;36.20
22666;DHT22;11499;49.486;11.104;2022-08-14T17:36:11;31.30;39.10